New Meadows, Idaho
Current Conditions -  °F | °C
As of 2:51 AM on Saturday 25 Oct 2014 (Local Time) from KMYL Reporting Station
Moderate Fog Moderate Fog  
Wind Chill: 35°   Ceiling: 100
Heat Index: 35°   Visibility: 0.25mi
Dew Point: 35°   Wind: 0mph
Humidity: 100%   Direction: NA
Pressure: 29.97"   Gusts: NA
Location:  44.97°N, 116.28°W
Report Text: KMYL 250851Z AUTO 00000KT 1/4SM FG VV001 02/02 A2997 RMK AO2 SLP151 T00170017 56011
Loading
Personal Weather Stations






























Interactive Weather Map New forecast layout! Learn more

10-Day Weather Forecast

Advertisements
Track Severe Weather on mobile